sensor_id;sensor_type;location;lat;lon;timestamp;temperature;humidity
7254;DHT22;4060;49.186;9.226;2023-07-20T00:01:41;29.40;34.10
7254;DHT22;4060;49.186;9.226;2023-07-20T00:04:12;29.40;34.20
7254;DHT22;4060;49.186;9.226;2023-07-20T00:06:42;29.30;34.20
7254;DHT22;4060;49.186;9.226;2023-07-20T00:09:12;29.30;34.30
7254;DHT22;4060;49.186;9.226;2023-07-20T00:11:47;29.30;34.30
7254;DHT22;4060;49.186;9.226;2023-07-20T00:14:17;29.30;34.40
7254;DHT22;4060;49.186;9.226;2023-07-20T00:16:50;29.20;34.40
7254;DHT22;4060;49.186;9.226;2023-07-20T00:19:24;29.20;34.50
7254;DHT22;4060;49.186;9.226;2023-07-20T00:21:54;29.20;34.50
7254;DHT22;4060;49.186;9.226;2023-07-20T00:24:24;29.10;34.50
7254;DHT22;4060;49.186;9.226;2023-07-20T00:26:54;29.10;34.60
7254;DHT22;4060;49.186;9.226;2023-07-20T00:29:24;29.10;34.60
7254;DHT22;4060;49.186;9.226;2023-07-20T00:31:58;29.00;34.60
7254;DHT22;4060;49.186;9.226;2023-07-20T00:34:27;29.00;34.70
7254;DHT22;4060;49.186;9.226;2023-07-20T00:36:57;29.00;34.80
7254;DHT22;4060;49.186;9.226;2023-07-20T00:39:27;28.90;34.80
7254;DHT22;4060;49.186;9.226;2023-07-20T00:41:57;28.90;34.80
7254;DHT22;4060;49.186;9.226;2023-07-20T00:44:32;28.90;34.80
7254;DHT22;4060;49.186;9.226;2023-07-20T00:47:04;28.90;35.00
7254;DHT22;4060;49.186;9.226;2023-07-20T00:49:34;28.80;34.90
7254;DHT22;4060;49.186;9.226;2023-07-20T00:52:04;28.80;34.90
7254;DHT22;4060;49.186;9.226;2023-07-20T00:54:35;28.80;35.00
7254;DHT22;4060;49.186;9.226;2023-07-20T00:57:05;28.70;34.90
7254;DHT22;4060;49.186;9.226;2023-07-20T00:59:36;28.70;34.90
7254;DHT22;4060;49.186;9.226;2023-07-20T01:02:08;28.70;35.00
7254;DHT22;4060;49.186;9.226;2023-07-20T01:04:37;28.70;35.00
7254;DHT22;4060;49.186;9.226;2023-07-20T01:07:17;28.60;35.00
7254;DHT22;4060;49.186;9.226;2023-07-20T01:09:58;28.60;35.10
7254;DHT22;4060;49.186;9.226;2023-07-20T01:12:35;28.60;35.10
7254;DHT22;4060;49.186;9.226;2023-07-20T01:15:09;28.50;35.00
7254;DHT22;4060;49.186;9.226;2023-07-20T01:17:41;28.50;35.10
7254;DHT22;4060;49.186;9.226;2023-07-20T01:20:13;28.50;35.20
7254;DHT22;4060;49.186;9.226;2023-07-20T01:25:58;28.40;35.20
7254;DHT22;4060;49.186;9.226;2023-07-20T01:28:57;28.40;35.20
7254;DHT22;4060;49.186;9.226;2023-07-20T01:31:32;28.30;35.30
7254;DHT22;4060;49.186;9.226;2023-07-20T01:34:03;28.30;35.20
7254;DHT22;4060;49.186;9.226;2023-07-20T01:36:34;28.30;35.30
7254;DHT22;4060;49.186;9.226;2023-07-20T01:39:04;28.30;35.30
7254;DHT22;4060;49.186;9.226;2023-07-20T01:41:35;28.20;35.30
7254;DHT22;4060;49.186;9.226;2023-07-20T01:44:05;28.20;35.40
7254;DHT22;4060;49.186;9.226;2023-07-20T01:46:36;28.20;35.40
7254;DHT22;4060;49.186;9.226;2023-07-20T01:49:05;28.20;35.40
7254;DHT22;4060;49.186;9.226;2023-07-20T01:51:34;28.10;35.40
7254;DHT22;4060;49.186;9.226;2023-07-20T01:54:03;28.10;35.50
7254;DHT22;4060;49.186;9.226;2023-07-20T01:56:32;28.10;35.50
7254;DHT22;4060;49.186;9.226;2023-07-20T01:59:02;28.10;35.50
7254;DHT22;4060;49.186;9.226;2023-07-20T02:01:32;28.10;35.60
7254;DHT22;4060;49.186;9.226;2023-07-20T02:04:03;28.00;35.50
7254;DHT22;4060;49.186;9.226;2023-07-20T02:06:32;28.00;35.60
7254;DHT22;4060;49.186;9.226;2023-07-20T02:09:02;28.00;35.70
7254;DHT22;4060;49.186;9.226;2023-07-20T02:11:31;27.90;35.60
7254;DHT22;4060;49.186;9.226;2023-07-20T02:14:01;27.90;35.70
7254;DHT22;4060;49.186;9.226;2023-07-20T02:16:30;27.90;35.80
7254;DHT22;4060;49.186;9.226;2023-07-20T02:18:59;27.80;35.70
7254;DHT22;4060;49.186;9.226;2023-07-20T02:21:31;27.80;35.80
7254;DHT22;4060;49.186;9.226;2023-07-20T02:24:00;27.80;35.80
7254;DHT22;4060;49.186;9.226;2023-07-20T02:26:30;27.70;35.80
7254;DHT22;4060;49.186;9.226;2023-07-20T02:28:59;27.70;35.90
7254;DHT22;4060;49.186;9.226;2023-07-20T02:31:31;27.70;36.00
7254;DHT22;4060;49.186;9.226;2023-07-20T02:34:01;27.70;36.00
7254;DHT22;4060;49.186;9.226;2023-07-20T02:36:33;27.70;36.10
7254;DHT22;4060;49.186;9.226;2023-07-20T02:39:03;27.60;36.00
7254;DHT22;4060;49.186;9.226;2023-07-20T02:41:34;27.60;36.10
7254;DHT22;4060;49.186;9.226;2023-07-20T02:44:03;27.60;36.10
7254;DHT22;4060;49.186;9.226;2023-07-20T02:46:33;27.60;36.30
7254;DHT22;4060;49.186;9.226;2023-07-20T02:49:02;27.60;36.20
7254;DHT22;4060;49.186;9.226;2023-07-20T02:51:34;27.50;36.20
7254;DHT22;4060;49.186;9.226;2023-07-20T02:54:04;27.50;36.30
7254;DHT22;4060;49.186;9.226;2023-07-20T02:56:33;27.40;36.20
7254;DHT22;4060;49.186;9.226;2023-07-20T02:59:04;27.50;36.40
7254;DHT22;4060;49.186;9.226;2023-07-20T03:01:33;27.40;36.40
7254;DHT22;4060;49.186;9.226;2023-07-20T03:04:02;27.40;36.40
7254;DHT22;4060;49.186;9.226;2023-07-20T03:06:34;27.40;36.40
7254;DHT22;4060;49.186;9.226;2023-07-20T03:09:04;27.30;36.40
7254;DHT22;4060;49.186;9.226;2023-07-20T03:11:34;27.30;36.40
7254;DHT22;4060;49.186;9.226;2023-07-20T03:14:05;27.30;36.50
7254;DHT22;4060;49.186;9.226;2023-07-20T03:16:34;27.30;36.60
7254;DHT22;4060;49.186;9.226;2023-07-20T03:19:04;27.30;36.60
7254;DHT22;4060;49.186;9.226;2023-07-20T03:21:42;27.20;36.50
7254;DHT22;4060;49.186;9.226;2023-07-20T03:24:12;27.20;36.60
7254;DHT22;4060;49.186;9.226;2023-07-20T03:26:42;27.20;36.70
7254;DHT22;4060;49.186;9.226;2023-07-20T03:29:11;27.20;36.70
7254;DHT22;4060;49.186;9.226;2023-07-20T03:31:40;27.10;36.80
7254;DHT22;4060;49.186;9.226;2023-07-20T03:34:10;27.10;36.80
7254;DHT22;4060;49.186;9.226;2023-07-20T03:36:41;27.10;36.90
7254;DHT22;4060;49.186;9.226;2023-07-20T03:39:10;27.00;36.90
7254;DHT22;4060;49.186;9.226;2023-07-20T03:41:39;27.00;36.90
7254;DHT22;4060;49.186;9.226;2023-07-20T03:44:10;27.00;36.90
7254;DHT22;4060;49.186;9.226;2023-07-20T03:46:39;27.00;37.00
7254;DHT22;4060;49.186;9.226;2023-07-20T03:49:09;27.00;37.00
7254;DHT22;4060;49.186;9.226;2023-07-20T03:51:40;26.90;37.10
7254;DHT22;4060;49.186;9.226;2023-07-20T03:54:09;26.90;37.10
7254;DHT22;4060;49.186;9.226;2023-07-20T03:56:39;26.90;37.20
7254;DHT22;4060;49.186;9.226;2023-07-20T03:59:09;26.90;37.20
7254;DHT22;4060;49.186;9.226;2023-07-20T04:01:38;26.80;37.20
7254;DHT22;4060;49.186;9.226;2023-07-20T04:04:08;26.80;37.30
7254;DHT22;4060;49.186;9.226;2023-07-20T04:06:40;26.80;37.30
7254;DHT22;4060;49.186;9.226;2023-07-20T04:09:12;26.70;37.30
7254;DHT22;4060;49.186;9.226;2023-07-20T04:11:41;26.70;37.40
7254;DHT22;4060;49.186;9.226;2023-07-20T04:14:10;26.70;37.40
7254;DHT22;4060;49.186;9.226;2023-07-20T04:16:39;26.70;37.50
7254;DHT22;4060;49.186;9.226;2023-07-20T04:19:08;26.70;37.50
7254;DHT22;4060;49.186;9.226;2023-07-20T04:21:42;26.60;37.50
7254;DHT22;4060;49.186;9.226;2023-07-20T04:24:11;26.60;37.60
7254;DHT22;4060;49.186;9.226;2023-07-20T04:26:40;26.60;37.60
7254;DHT22;4060;49.186;9.226;2023-07-20T04:29:10;26.60;37.70
7254;DHT22;4060;49.186;9.226;2023-07-20T04:31:39;26.60;37.70
7254;DHT22;4060;49.186;9.226;2023-07-20T04:34:09;26.50;37.70
7254;DHT22;4060;49.186;9.226;2023-07-20T04:36:38;26.50;37.70
7254;DHT22;4060;49.186;9.226;2023-07-20T04:39:10;26.50;37.80
7254;DHT22;4060;49.186;9.226;2023-07-20T04:41:40;26.50;37.90
7254;DHT22;4060;49.186;9.226;2023-07-20T04:44:10;26.40;37.90
7254;DHT22;4060;49.186;9.226;2023-07-20T04:46:39;26.40;37.90
7254;DHT22;4060;49.186;9.226;2023-07-20T04:49:09;26.40;38.00
7254;DHT22;4060;49.186;9.226;2023-07-20T04:51:39;26.40;38.00
7254;DHT22;4060;49.186;9.226;2023-07-20T04:54:10;26.40;38.00
7254;DHT22;4060;49.186;9.226;2023-07-20T04:56:40;26.40;38.10
7254;DHT22;4060;49.186;9.226;2023-07-20T04:59:26;26.30;38.10
7254;DHT22;4060;49.186;9.226;2023-07-20T05:02:00;26.30;38.20
7254;DHT22;4060;49.186;9.226;2023-07-20T05:04:30;26.30;38.10
7254;DHT22;4060;49.186;9.226;2023-07-20T05:06:59;26.30;38.20
7254;DHT22;4060;49.186;9.226;2023-07-20T05:09:30;26.20;38.20
7254;DHT22;4060;49.186;9.226;2023-07-20T05:12:00;26.20;38.30
7254;DHT22;4060;49.186;9.226;2023-07-20T05:14:29;26.20;38.30
7254;DHT22;4060;49.186;9.226;2023-07-20T05:16:58;26.20;38.30
7254;DHT22;4060;49.186;9.226;2023-07-20T05:19:28;26.20;38.50
7254;DHT22;4060;49.186;9.226;2023-07-20T05:21:57;26.20;38.50
7254;DHT22;4060;49.186;9.226;2023-07-20T05:24:27;26.20;39.00
7254;DHT22;4060;49.186;9.226;2023-07-20T05:26:59;26.20;38.50
7254;DHT22;4060;49.186;9.226;2023-07-20T05:29:28;26.20;38.60
7254;DHT22;4060;49.186;9.226;2023-07-20T05:31:57;26.20;38.60
7254;DHT22;4060;49.186;9.226;2023-07-20T05:34:26;26.20;38.60
7254;DHT22;4060;49.186;9.226;2023-07-20T05:36:56;26.30;38.80
7254;DHT22;4060;49.186;9.226;2023-07-20T05:39:25;26.30;38.80
7254;DHT22;4060;49.186;9.226;2023-07-20T05:41:54;26.20;38.80
7254;DHT22;4060;49.186;9.226;2023-07-20T05:44:26;26.30;38.90
7254;DHT22;4060;49.186;9.226;2023-07-20T05:46:55;26.30;39.00
7254;DHT22;4060;49.186;9.226;2023-07-20T05:49:25;26.30;39.00
7254;DHT22;4060;49.186;9.226;2023-07-20T05:51:54;26.30;39.10
7254;DHT22;4060;49.186;9.226;2023-07-20T05:54:25;26.30;39.20
7254;DHT22;4060;49.186;9.226;2023-07-20T05:56:55;26.30;39.20
7254;DHT22;4060;49.186;9.226;2023-07-20T05:59:28;26.30;39.20
7254;DHT22;4060;49.186;9.226;2023-07-20T06:01:58;26.40;39.30
7254;DHT22;4060;49.186;9.226;2023-07-20T06:04:28;26.40;39.30
7254;DHT22;4060;49.186;9.226;2023-07-20T06:06:57;26.40;39.30
7254;DHT22;4060;49.186;9.226;2023-07-20T06:09:27;26.40;39.30
7254;DHT22;4060;49.186;9.226;2023-07-20T06:11:56;26.40;39.40
7254;DHT22;4060;49.186;9.226;2023-07-20T06:14:27;26.40;39.50
7254;DHT22;4060;49.186;9.226;2023-07-20T06:16:57;26.50;39.50
7254;DHT22;4060;49.186;9.226;2023-07-20T06:19:26;26.50;39.50
7254;DHT22;4060;49.186;9.226;2023-07-20T06:21:55;26.50;39.60
7254;DHT22;4060;49.186;9.226;2023-07-20T06:24:25;26.50;39.60
7254;DHT22;4060;49.186;9.226;2023-07-20T06:26:54;26.50;39.60
7254;DHT22;4060;49.186;9.226;2023-07-20T06:29:26;26.60;39.70
7254;DHT22;4060;49.186;9.226;2023-07-20T06:31:55;26.60;39.70
7254;DHT22;4060;49.186;9.226;2023-07-20T06:34:24;26.60;39.70
7254;DHT22;4060;49.186;9.226;2023-07-20T06:36:53;26.60;39.70
7254;DHT22;4060;49.186;9.226;2023-07-20T06:39:23;26.60;39.70
7254;DHT22;4060;49.186;9.226;2023-07-20T06:41:52;26.60;39.70
7254;DHT22;4060;49.186;9.226;2023-07-20T06:44:21;26.70;39.80
7254;DHT22;4060;49.186;9.226;2023-07-20T06:46:53;26.70;39.80
7254;DHT22;4060;49.186;9.226;2023-07-20T06:49:26;26.70;39.80
7254;DHT22;4060;49.186;9.226;2023-07-20T06:51:56;26.70;39.70
7254;DHT22;4060;49.186;9.226;2023-07-20T06:54:25;26.70;39.70
7254;DHT22;4060;49.186;9.226;2023-07-20T06:56:54;26.70;39.70
7254;DHT22;4060;49.186;9.226;2023-07-20T06:59:23;26.80;39.80
7254;DHT22;4060;49.186;9.226;2023-07-20T07:01:54;26.80;39.70
7254;DHT22;4060;49.186;9.226;2023-07-20T07:04:24;26.80;39.70
7254;DHT22;4060;49.186;9.226;2023-07-20T07:06:54;26.80;39.60
7254;DHT22;4060;49.186;9.226;2023-07-20T07:09:23;26.90;39.60
7254;DHT22;4060;49.186;9.226;2023-07-20T07:11:53;26.90;39.60
7254;DHT22;4060;49.186;9.226;2023-07-20T07:14:22;26.90;39.70
7254;DHT22;4060;49.186;9.226;2023-07-20T07:16:53;26.90;39.70
7254;DHT22;4060;49.186;9.226;2023-07-20T07:19:23;27.00;39.60
7254;DHT22;4060;49.186;9.226;2023-07-20T07:21:52;27.00;39.50
7254;DHT22;4060;49.186;9.226;2023-07-20T07:24:22;27.00;39.50
7254;DHT22;4060;49.186;9.226;2023-07-20T07:26:51;26.90;39.30
7254;DHT22;4060;49.186;9.226;2023-07-20T07:29:20;27.00;39.40
7254;DHT22;4060;49.186;9.226;2023-07-20T07:31:50;26.90;39.40
7254;DHT22;4060;49.186;9.226;2023-07-20T07:34:21;26.90;39.40
7254;DHT22;4060;49.186;9.226;2023-07-20T07:36:50;26.90;39.50
7254;DHT22;4060;49.186;9.226;2023-07-20T07:39:19;26.90;39.50
7254;DHT22;4060;49.186;9.226;2023-07-20T07:41:49;26.90;39.60
7254;DHT22;4060;49.186;9.226;2023-07-20T07:44:18;26.90;39.60
7254;DHT22;4060;49.186;9.226;2023-07-20T07:46:48;27.00;39.60
7254;DHT22;4060;49.186;9.226;2023-07-20T07:49:18;27.00;39.70
7254;DHT22;4060;49.186;9.226;2023-07-20T07:51:51;27.00;39.60
7254;DHT22;4060;49.186;9.226;2023-07-20T07:54:20;27.00;39.60
7254;DHT22;4060;49.186;9.226;2023-07-20T07:56:50;27.00;39.60
7254;DHT22;4060;49.186;9.226;2023-07-20T07:59:20;27.10;39.60
7254;DHT22;4060;49.186;9.226;2023-07-20T08:01:49;27.10;39.60
7254;DHT22;4060;49.186;9.226;2023-07-20T08:04:19;27.10;39.60
7254;DHT22;4060;49.186;9.226;2023-07-20T08:06:50;27.20;39.50
7254;DHT22;4060;49.186;9.226;2023-07-20T08:09:22;27.20;39.40
7254;DHT22;4060;49.186;9.226;2023-07-20T08:11:52;27.20;39.30
7254;DHT22;4060;49.186;9.226;2023-07-20T08:14:32;27.30;39.30
7254;DHT22;4060;49.186;9.226;2023-07-20T08:17:01;27.20;39.10
7254;DHT22;4060;49.186;9.226;2023-07-20T08:19:31;27.20;39.00
7254;DHT22;4060;49.186;9.226;2023-07-20T08:22:02;27.20;39.00
7254;DHT22;4060;49.186;9.226;2023-07-20T08:24:31;27.20;39.00
7254;DHT22;4060;49.186;9.226;2023-07-20T08:27:02;27.20;39.00
7254;DHT22;4060;49.186;9.226;2023-07-20T08:29:32;27.20;39.00
7254;DHT22;4060;49.186;9.226;2023-07-20T08:32:01;27.20;39.00
7254;DHT22;4060;49.186;9.226;2023-07-20T08:34:31;27.20;39.00
7254;DHT22;4060;49.186;9.226;2023-07-20T08:37:02;27.20;39.00
7254;DHT22;4060;49.186;9.226;2023-07-20T08:39:31;27.20;38.90
7254;DHT22;4060;49.186;9.226;2023-07-20T08:42:02;27.30;39.00
7254;DHT22;4060;49.186;9.226;2023-07-20T08:44:33;27.30;38.90
7254;DHT22;4060;49.186;9.226;2023-07-20T08:47:04;27.30;39.00
7254;DHT22;4060;49.186;9.226;2023-07-20T08:49:34;27.30;38.90
7254;DHT22;4060;49.186;9.226;2023-07-20T08:52:05;27.30;38.90
7254;DHT22;4060;49.186;9.226;2023-07-20T08:54:35;27.30;38.70
7254;DHT22;4060;49.186;9.226;2023-07-20T08:57:05;27.30;38.70
7254;DHT22;4060;49.186;9.226;2023-07-20T08:59:37;27.30;38.70
7254;DHT22;4060;49.186;9.226;2023-07-20T09:02:08;27.30;38.70
7254;DHT22;4060;49.186;9.226;2023-07-20T09:04:54;27.30;38.60
7254;DHT22;4060;49.186;9.226;2023-07-20T09:07:26;27.30;38.60
7254;DHT22;4060;49.186;9.226;2023-07-20T09:09:57;27.40;38.60
7254;DHT22;4060;49.186;9.226;2023-07-20T09:12:27;27.30;38.50
7254;DHT22;4060;49.186;9.226;2023-07-20T09:14:58;27.40;38.40
7254;DHT22;4060;49.186;9.226;2023-07-20T09:17:28;27.40;38.30
7254;DHT22;4060;49.186;9.226;2023-07-20T09:19:57;27.50;38.20
7254;DHT22;4060;49.186;9.226;2023-07-20T09:22:32;27.50;38.10
7254;DHT22;4060;49.186;9.226;2023-07-20T09:25:01;27.60;37.90
7254;DHT22;4060;49.186;9.226;2023-07-20T09:27:37;27.60;37.80
7254;DHT22;4060;49.186;9.226;2023-07-20T09:30:07;27.60;37.70
7254;DHT22;4060;49.186;9.226;2023-07-20T09:32:42;27.70;37.60
7254;DHT22;4060;49.186;9.226;2023-07-20T09:35:16;27.70;37.50
7254;DHT22;4060;49.186;9.226;2023-07-20T09:37:50;27.70;37.50
7254;DHT22;4060;49.186;9.226;2023-07-20T09:40:21;27.70;37.90
7254;DHT22;4060;49.186;9.226;2023-07-20T09:42:52;27.70;37.40
7254;DHT22;4060;49.186;9.226;2023-07-20T09:45:30;27.70;37.30
7254;DHT22;4060;49.186;9.226;2023-07-20T09:48:06;27.70;37.30
7254;DHT22;4060;49.186;9.226;2023-07-20T09:50:40;27.70;37.20
7254;DHT22;4060;49.186;9.226;2023-07-20T09:53:14;27.80;37.30
7254;DHT22;4060;49.186;9.226;2023-07-20T09:55:45;27.80;37.20
7254;DHT22;4060;49.186;9.226;2023-07-20T09:58:14;27.80;37.10
7254;DHT22;4060;49.186;9.226;2023-07-20T10:00:45;27.80;37.00
7254;DHT22;4060;49.186;9.226;2023-07-20T10:03:20;27.80;36.90
7254;DHT22;4060;49.186;9.226;2023-07-20T10:05:54;27.80;36.80
7254;DHT22;4060;49.186;9.226;2023-07-20T10:08:29;27.90;36.80
7254;DHT22;4060;49.186;9.226;2023-07-20T10:11:00;27.90;36.70
7254;DHT22;4060;49.186;9.226;2023-07-20T10:13:31;27.90;36.50
7254;DHT22;4060;49.186;9.226;2023-07-20T10:16:03;27.90;36.30
7254;DHT22;4060;49.186;9.226;2023-07-20T10:18:41;28.00;36.20
7254;DHT22;4060;49.186;9.226;2023-07-20T10:21:12;28.00;36.10
7254;DHT22;4060;49.186;9.226;2023-07-20T10:23:47;28.00;36.10
7254;DHT22;4060;49.186;9.226;2023-07-20T10:26:17;28.00;36.10
7254;DHT22;4060;49.186;9.226;2023-07-20T10:28:46;28.10;36.10
7254;DHT22;4060;49.186;9.226;2023-07-20T10:31:16;28.10;36.00
7254;DHT22;4060;49.186;9.226;2023-07-20T10:33:46;28.10;36.00
7254;DHT22;4060;49.186;9.226;2023-07-20T10:36:25;28.10;35.90
7254;DHT22;4060;49.186;9.226;2023-07-20T10:38:58;28.10;35.80
7254;DHT22;4060;49.186;9.226;2023-07-20T10:41:35;28.20;35.80
7254;DHT22;4060;49.186;9.226;2023-07-20T10:44:07;28.20;35.70
7254;DHT22;4060;49.186;9.226;2023-07-20T10:46:44;28.20;35.60
7254;DHT22;4060;49.186;9.226;2023-07-20T10:49:14;28.20;35.50
7254;DHT22;4060;49.186;9.226;2023-07-20T10:51:44;28.30;35.50
7254;DHT22;4060;49.186;9.226;2023-07-20T10:57:31;28.30;35.00
7254;DHT22;4060;49.186;9.226;2023-07-20T11:00:11;28.30;34.70
7254;DHT22;4060;49.186;9.226;2023-07-20T11:02:45;28.40;34.50
7254;DHT22;4060;49.186;9.226;2023-07-20T11:05:32;28.40;34.50
7254;DHT22;4060;49.186;9.226;2023-07-20T11:08:09;28.40;34.30
7254;DHT22;4060;49.186;9.226;2023-07-20T11:10:39;28.40;34.30
7254;DHT22;4060;49.186;9.226;2023-07-20T11:13:21;28.40;34.30
7254;DHT22;4060;49.186;9.226;2023-07-20T11:16:10;28.40;34.20
7254;DHT22;4060;49.186;9.226;2023-07-20T11:18:41;28.50;34.20
7254;DHT22;4060;49.186;9.226;2023-07-20T11:21:11;28.50;34.20
7254;DHT22;4060;49.186;9.226;2023-07-20T11:23:41;28.50;34.20
7254;DHT22;4060;49.186;9.226;2023-07-20T11:26:13;28.50;34.20
7254;DHT22;4060;49.186;9.226;2023-07-20T11:28:50;28.50;34.10
7254;DHT22;4060;49.186;9.226;2023-07-20T11:31:19;28.60;34.10
7254;DHT22;4060;49.186;9.226;2023-07-20T11:33:51;28.60;34.10
7254;DHT22;4060;49.186;9.226;2023-07-20T11:36:21;28.70;33.90
7254;DHT22;4060;49.186;9.226;2023-07-20T11:38:50;28.80;33.60
7254;DHT22;4060;49.186;9.226;2023-07-20T11:41:20;29.10;33.50
7254;DHT22;4060;49.186;9.226;2023-07-20T11:43:52;29.40;33.30
7254;DHT22;4060;49.186;9.226;2023-07-20T11:46:24;29.70;32.90
7254;DHT22;4060;49.186;9.226;2023-07-20T11:49:01;30.00;32.40
7254;DHT22;4060;49.186;9.226;2023-07-20T11:51:31;30.30;32.00
7254;DHT22;4060;49.186;9.226;2023-07-20T11:54:02;30.50;31.60
7254;DHT22;4060;49.186;9.226;2023-07-20T11:56:31;30.70;31.30
7254;DHT22;4060;49.186;9.226;2023-07-20T11:59:08;30.90;31.00
7254;DHT22;4060;49.186;9.226;2023-07-20T12:01:38;31.00;30.50
7254;DHT22;4060;49.186;9.226;2023-07-20T12:04:07;31.20;30.40
7254;DHT22;4060;49.186;9.226;2023-07-20T12:06:37;31.20;30.20
7254;DHT22;4060;49.186;9.226;2023-07-20T12:09:06;31.30;30.10
7254;DHT22;4060;49.186;9.226;2023-07-20T12:11:44;31.40;30.00
7254;DHT22;4060;49.186;9.226;2023-07-20T12:14:15;31.40;30.00
7254;DHT22;4060;49.186;9.226;2023-07-20T12:16:44;31.50;30.00
7254;DHT22;4060;49.186;9.226;2023-07-20T12:19:26;31.50;29.90
7254;DHT22;4060;49.186;9.226;2023-07-20T12:21:58;31.50;29.90
7254;DHT22;4060;49.186;9.226;2023-07-20T12:24:27;31.60;29.90
7254;DHT22;4060;49.186;9.226;2023-07-20T12:26:57;31.60;29.90
7254;DHT22;4060;49.186;9.226;2023-07-20T12:29:29;31.60;29.80
7254;DHT22;4060;49.186;9.226;2023-07-20T12:31:59;31.60;29.70
7254;DHT22;4060;49.186;9.226;2023-07-20T12:34:28;31.60;29.70
7254;DHT22;4060;49.186;9.226;2023-07-20T12:36:58;31.70;29.70
7254;DHT22;4060;49.186;9.226;2023-07-20T12:39:27;31.70;29.60
7254;DHT22;4060;49.186;9.226;2023-07-20T12:41:56;31.70;29.50
7254;DHT22;4060;49.186;9.226;2023-07-20T12:44:31;31.70;29.40
7254;DHT22;4060;49.186;9.226;2023-07-20T12:47:16;31.70;29.40
7254;DHT22;4060;49.186;9.226;2023-07-20T12:49:46;31.70;29.40
7254;DHT22;4060;49.186;9.226;2023-07-20T12:52:15;31.80;29.40
7254;DHT22;4060;49.186;9.226;2023-07-20T12:54:45;31.70;29.30
7254;DHT22;4060;49.186;9.226;2023-07-20T12:57:14;31.80;29.20
7254;DHT22;4060;49.186;9.226;2023-07-20T12:59:46;31.70;29.10
7254;DHT22;4060;49.186;9.226;2023-07-20T13:02:16;31.80;29.10
7254;DHT22;4060;49.186;9.226;2023-07-20T13:04:45;31.80;29.10
7254;DHT22;4060;49.186;9.226;2023-07-20T13:07:15;31.80;29.00
7254;DHT22;4060;49.186;9.226;2023-07-20T13:09:46;31.80;29.00
7254;DHT22;4060;49.186;9.226;2023-07-20T13:12:15;31.80;28.90
7254;DHT22;4060;49.186;9.226;2023-07-20T13:14:46;31.80;28.90
7254;DHT22;4060;49.186;9.226;2023-07-20T13:17:16;31.90;28.90
7254;DHT22;4060;49.186;9.226;2023-07-20T13:19:46;31.90;28.90
7254;DHT22;4060;49.186;9.226;2023-07-20T13:22:15;31.90;28.90
7254;DHT22;4060;49.186;9.226;2023-07-20T13:24:45;31.90;28.90
7254;DHT22;4060;49.186;9.226;2023-07-20T13:27:16;31.90;28.90
7254;DHT22;4060;49.186;9.226;2023-07-20T13:29:47;31.90;28.80
7254;DHT22;4060;49.186;9.226;2023-07-20T13:32:16;31.90;28.80
7254;DHT22;4060;49.186;9.226;2023-07-20T13:34:46;32.00;28.90
7254;DHT22;4060;49.186;9.226;2023-07-20T13:37:16;32.00;28.80
7254;DHT22;4060;49.186;9.226;2023-07-20T13:39:45;32.00;28.70
7254;DHT22;4060;49.186;9.226;2023-07-20T13:42:15;32.00;28.70
7254;DHT22;4060;49.186;9.226;2023-07-20T13:44:47;32.00;28.60
7254;DHT22;4060;49.186;9.226;2023-07-20T13:47:16;31.90;28.50
7254;DHT22;4060;49.186;9.226;2023-07-20T13:49:46;32.00;28.50
7254;DHT22;4060;49.186;9.226;2023-07-20T13:52:18;32.00;28.40
7254;DHT22;4060;49.186;9.226;2023-07-20T13:54:48;32.00;28.40
7254;DHT22;4060;49.186;9.226;2023-07-20T13:57:17;32.00;28.50
7254;DHT22;4060;49.186;9.226;2023-07-20T13:59:48;32.00;28.40
7254;DHT22;4060;49.186;9.226;2023-07-20T14:02:18;32.00;28.40
7254;DHT22;4060;49.186;9.226;2023-07-20T14:04:47;32.00;28.40
7254;DHT22;4060;49.186;9.226;2023-07-20T14:07:17;32.00;28.40
7254;DHT22;4060;49.186;9.226;2023-07-20T14:09:47;32.00;28.40
7254;DHT22;4060;49.186;9.226;2023-07-20T14:12:16;32.10;28.40
7254;DHT22;4060;49.186;9.226;2023-07-20T14:14:45;32.00;28.40
7254;DHT22;4060;49.186;9.226;2023-07-20T14:17:16;32.00;28.30
7254;DHT22;4060;49.186;9.226;2023-07-20T14:19:45;32.00;28.30
7254;DHT22;4060;49.186;9.226;2023-07-20T14:22:15;32.10;28.40
7254;DHT22;4060;49.186;9.226;2023-07-20T14:24:45;32.00;28.30
7254;DHT22;4060;49.186;9.226;2023-07-20T14:27:15;32.10;28.40
7254;DHT22;4060;49.186;9.226;2023-07-20T14:29:44;32.10;28.40
7254;DHT22;4060;49.186;9.226;2023-07-20T14:32:16;32.10;28.40
7254;DHT22;4060;49.186;9.226;2023-07-20T14:34:45;32.10;28.30
7254;DHT22;4060;49.186;9.226;2023-07-20T14:37:14;32.10;28.30
7254;DHT22;4060;49.186;9.226;2023-07-20T14:39:43;32.10;28.30
7254;DHT22;4060;49.186;9.226;2023-07-20T14:42:12;32.10;28.20
7254;DHT22;4060;49.186;9.226;2023-07-20T14:44:42;32.10;28.20
7254;DHT22;4060;49.186;9.226;2023-07-20T14:47:11;32.10;28.20
7254;DHT22;4060;49.186;9.226;2023-07-20T14:49:42;32.10;28.50
7254;DHT22;4060;49.186;9.226;2023-07-20T14:52:11;32.10;28.10
7254;DHT22;4060;49.186;9.226;2023-07-20T14:54:41;32.10;28.10
7254;DHT22;4060;49.186;9.226;2023-07-20T14:57:11;32.10;28.10
7254;DHT22;4060;49.186;9.226;2023-07-20T14:59:43;32.10;28.10
7254;DHT22;4060;49.186;9.226;2023-07-20T15:02:12;32.20;28.20
7254;DHT22;4060;49.186;9.226;2023-07-20T15:04:49;32.10;28.10
7254;DHT22;4060;49.186;9.226;2023-07-20T15:07:20;32.20;28.20
7254;DHT22;4060;49.186;9.226;2023-07-20T15:09:49;32.20;28.20
7254;DHT22;4060;49.186;9.226;2023-07-20T15:12:19;32.20;28.20
7254;DHT22;4060;49.186;9.226;2023-07-20T15:15:03;32.20;28.20
7254;DHT22;4060;49.186;9.226;2023-07-20T15:17:33;32.20;28.10
7254;DHT22;4060;49.186;9.226;2023-07-20T15:20:07;32.20;28.10
7254;DHT22;4060;49.186;9.226;2023-07-20T15:22:37;32.20;28.10
7254;DHT22;4060;49.186;9.226;2023-07-20T15:25:08;32.20;28.10
7254;DHT22;4060;49.186;9.226;2023-07-20T15:27:38;32.20;28.10
7254;DHT22;4060;49.186;9.226;2023-07-20T15:30:08;32.20;28.10
7254;DHT22;4060;49.186;9.226;2023-07-20T15:32:38;32.20;28.10
7254;DHT22;4060;49.186;9.226;2023-07-20T15:35:12;32.20;28.00
7254;DHT22;4060;49.186;9.226;2023-07-20T15:37:41;32.20;28.00
7254;DHT22;4060;49.186;9.226;2023-07-20T15:40:11;32.20;28.00
7254;DHT22;4060;49.186;9.226;2023-07-20T15:42:41;32.30;28.00
7254;DHT22;4060;49.186;9.226;2023-07-20T15:45:10;32.20;28.00
7254;DHT22;4060;49.186;9.226;2023-07-20T15:47:40;32.20;27.90
7254;DHT22;4060;49.186;9.226;2023-07-20T15:50:12;32.20;27.90
7254;DHT22;4060;49.186;9.226;2023-07-20T15:52:42;32.20;27.90
7254;DHT22;4060;49.186;9.226;2023-07-20T15:55:11;32.20;27.90
7254;DHT22;4060;49.186;9.226;2023-07-20T15:57:41;32.20;28.00
7254;DHT22;4060;49.186;9.226;2023-07-20T16:00:11;32.30;28.00
7254;DHT22;4060;49.186;9.226;2023-07-20T16:02:40;32.20;28.00
7254;DHT22;4060;49.186;9.226;2023-07-20T16:05:11;32.20;28.00
7254;DHT22;4060;49.186;9.226;2023-07-20T16:07:41;32.20;28.00
7254;DHT22;4060;49.186;9.226;2023-07-20T16:10:11;32.20;28.00
7254;DHT22;4060;49.186;9.226;2023-07-20T16:12:41;32.20;28.00
7254;DHT22;4060;49.186;9.226;2023-07-20T16:15:11;32.30;28.10
7254;DHT22;4060;49.186;9.226;2023-07-20T16:17:40;32.20;28.00
7254;DHT22;4060;49.186;9.226;2023-07-20T16:20:17;32.30;28.10
7254;DHT22;4060;49.186;9.226;2023-07-20T16:22:46;32.30;28.00
7254;DHT22;4060;49.186;9.226;2023-07-20T16:25:16;32.20;28.00
7254;DHT22;4060;49.186;9.226;2023-07-20T16:27:45;32.20;28.00
7254;DHT22;4060;49.186;9.226;2023-07-20T16:30:15;32.30;28.10
7254;DHT22;4060;49.186;9.226;2023-07-20T16:32:44;32.20;28.00